Time;durP1;ratioP1;P1;durP2;ratioP2;P2;SDS_P1;SDS_P2;PMS_P1;PMS_P2;Temp;Humidity;BMP_temperature;BMP_pressure;BME280_temperature;BME280_humidity;BME280_pressure;Samples;Min_cycle;Max_cycle;Signal;HPM_P1;HPM_P2
2022/01/11 00:00:57;;;;;;;16.00;9.93;;;;;;;;;;5058753;28;20505;-61
2022/01/11 00:03:23;;;;;;;14.33;9.73;;;;;;;;;;5063998;28;20416;-61
2022/01/11 00:05:56;;;;;;;16.20;10.07;;;;;;;;;;5064743;28;20515;-60
2022/01/11 00:08:30;;;;;;;13.80;10.00;;;;;;;;;;5059259;28;20419;-60
2022/01/11 00:11:06;;;;;;;13.87;9.63;;;;;;;;;;5071134;28;20425;-61
2022/01/11 00:13:46;;;;;;;17.63;10.67;;;;;;;;;;5071145;28;20418;-61
2022/01/11 00:16:15;;;;;;;13.20;9.93;;;;;;;;;;5069073;28;20753;-61
2022/01/11 00:18:41;;;;;;;19.93;10.90;;;;;;;;;;5070556;28;20909;-61
2022/01/11 00:21:11;;;;;;;14.67;10.37;;;;;;;;;;5068447;28;21183;-60
2022/01/11 00:26:07;;;;;;;12.93;9.63;;;;;;;;;;5071045;28;20552;-59
2022/01/11 00:28:37;;;;;;;15.50;10.30;;;;;;;;;;5069561;28;20425;-59
2022/01/11 00:31:06;;;;;;;17.80;10.40;;;;;;;;;;5067496;28;20542;-61
2022/01/11 00:33:40;;;;;;;16.27;10.97;;;;;;;;;;5069255;28;20419;-60
2022/01/11 00:36:07;;;;;;;13.03;10.33;;;;;;;;;;5071176;28;20862;-60
2022/01/11 00:38:38;;;;;;;13.93;10.90;;;;;;;;;;5069237;28;20423;-62
2022/01/11 00:41:05;;;;;;;15.93;11.17;;;;;;;;;;5070157;28;20483;-60
2022/01/11 00:43:32;;;;;;;16.10;11.80;;;;;;;;;;5060868;28;20426;-60
2022/01/11 00:45:58;;;;;;;16.13;10.87;;;;;;;;;;5064383;28;20490;-61
2022/01/11 00:48:25;;;;;;;15.53;10.90;;;;;;;;;;5070140;28;20410;-60
2022/01/11 00:50:55;;;;;;;14.53;10.63;;;;;;;;;;5070436;28;20513;-60
2022/01/11 00:53:22;;;;;;;17.20;11.00;;;;;;;;;;5069059;28;20914;-61
2022/01/11 00:55:49;;;;;;;15.83;10.90;;;;;;;;;;5094138;28;20550;-61
2022/01/11 00:58:16;;;;;;;18.33;11.97;;;;;;;;;;5100716;28;20461;-60
2022/01/11 01:00:43;;;;;;;16.97;10.67;;;;;;;;;;5085989;28;20512;-59
2022/01/11 01:03:09;;;;;;;16.40;10.23;;;;;;;;;;5073277;28;20414;-61
2022/01/11 01:05:38;;;;;;;17.03;10.97;;;;;;;;;;5077598;28;20473;-60
2022/01/11 01:08:05;;;;;;;14.87;10.83;;;;;;;;;;5088312;28;20425;-60
2022/01/11 01:10:46;;;;;;;16.37;11.00;;;;;;;;;;5085838;28;20431;-61
2022/01/11 01:13:17;;;;;;;16.17;10.53;;;;;;;;;;5095041;28;20832;-60
2022/01/11 01:15:47;;;;;;;17.50;11.53;;;;;;;;;;5093653;28;20432;-61
2022/01/11 01:18:20;;;;;;;15.17;10.27;;;;;;;;;;5069757;28;20460;-61
2022/01/11 01:20:47;;;;;;;17.03;10.07;;;;;;;;;;5083415;28;20533;-60
2022/01/11 01:23:16;;;;;;;22.13;10.67;;;;;;;;;;5091888;28;20439;-59
2022/01/11 01:26:03;;;;;;;14.67;10.53;;;;;;;;;;5078461;28;20566;-60
2022/01/11 01:28:29;;;;;;;16.93;10.87;;;;;;;;;;5081306;28;20418;-61
2022/01/11 01:31:00;;;;;;;16.40;10.93;;;;;;;;;;5100533;28;20449;-61
2022/01/11 01:33:29;;;;;;;16.63;10.50;;;;;;;;;;5094059;28;20406;-61
2022/01/11 01:36:01;;;;;;;16.33;9.73;;;;;;;;;;5096781;28;20872;-60
2022/01/11 01:38:28;;;;;;;18.37;11.20;;;;;;;;;;5098768;28;21175;-60
2022/01/11 01:40:59;;;;;;;15.83;10.77;;;;;;;;;;5095586;28;20428;-61
2022/01/11 01:43:25;;;;;;;15.93;9.90;;;;;;;;;;5099440;28;20828;-61
2022/01/11 01:46:00;;;;;;;18.73;11.07;;;;;;;;;;5065931;28;21019;-61
2022/01/11 01:48:32;;;;;;;15.37;10.23;;;;;;;;;;5087645;28;20792;-60
2022/01/11 01:50:58;;;;;;;17.10;10.20;;;;;;;;;;5070248;28;20438;-61
2022/01/11 01:53:28;;;;;;;17.13;10.73;;;;;;;;;;5088402;28;20418;-61
2022/01/11 01:55:55;;;;;;;17.27;10.63;;;;;;;;;;5055152;28;20475;-61
2022/01/11 01:58:28;;;;;;;17.03;11.23;;;;;;;;;;5069779;28;20429;-61
2022/01/11 02:01:02;;;;;;;19.40;11.80;;;;;;;;;;5067368;28;20415;-60
2022/01/11 02:03:30;;;;;;;17.47;11.30;;;;;;;;;;5068036;28;20973;-60
2022/01/11 02:06:00;;;;;;;16.27;10.30;;;;;;;;;;5055070;28;20466;-60
2022/01/11 02:08:29;;;;;;;17.93;11.37;;;;;;;;;;5067761;28;20423;-60
2022/01/11 02:10:56;;;;;;;19.53;11.07;;;;;;;;;;5065450;28;20415;-60
2022/01/11 02:13:22;;;;;;;17.00;11.07;;;;;;;;;;5052973;28;20572;-60
2022/01/11 02:15:50;;;;;;;17.00;10.47;;;;;;;;;;5064923;28;20473;-61
2022/01/11 02:18:20;;;;;;;16.10;10.17;;;;;;;;;;5045787;28;20790;-60
2022/01/11 02:20:46;;;;;;;15.77;10.97;;;;;;;;;;5049946;28;20419;-60
2022/01/11 02:23:13;;;;;;;20.57;11.80;;;;;;;;;;5052049;28;20421;-60
2022/01/11 02:25:40;;;;;;;17.73;10.87;;;;;;;;;;5067160;28;20555;-60
2022/01/11 02:28:07;;;;;;;19.43;11.90;;;;;;;;;;5050877;28;20419;-60
2022/01/11 02:30:34;;;;;;;17.57;11.23;;;;;;;;;;5050445;28;20939;-60
2022/01/11 02:33:02;;;;;;;22.63;12.53;;;;;;;;;;5065978;28;20429;-59
2022/01/11 02:35:29;;;;;;;17.30;11.53;;;;;;;;;;5063008;28;20431;-60
2022/01/11 02:37:57;;;;;;;18.40;11.87;;;;;;;;;;5052755;28;20735;-60
2022/01/11 02:40:24;;;;;;;21.40;12.23;;;;;;;;;;5051319;28;20419;-60
2022/01/11 02:42:53;;;;;;;23.33;12.87;;;;;;;;;;5064525;28;20435;-59
2022/01/11 02:45:25;;;;;;;21.30;12.23;;;;;;;;;;5047538;28;20458;-60
2022/01/11 02:47:51;;;;;;;18.70;12.63;;;;;;;;;;5055310;28;20917;-60
2022/01/11 02:50:19;;;;;;;24.37;12.30;;;;;;;;;;5055269;28;20422;-60
2022/01/11 02:52:45;;;;;;;23.37;13.37;;;;;;;;;;5065989;28;20514;-60
2022/01/11 02:55:12;;;;;;;23.50;13.40;;;;;;;;;;5062034;28;20497;-61
2022/01/11 02:57:39;;;;;;;21.67;14.17;;;;;;;;;;5065217;28;20431;-61
2022/01/11 03:00:07;;;;;;;18.73;11.53;;;;;;;;;;5048397;28;20414;-61
2022/01/11 03:02:33;;;;;;;24.00;13.00;;;;;;;;;;5035263;28;20422;-61
2022/01/11 03:05:00;;;;;;;23.70;13.37;;;;;;;;;;5066811;28;20419;-61
2022/01/11 03:07:26;;;;;;;20.77;12.27;;;;;;;;;;5054715;28;20517;-60
2022/01/11 03:10:02;;;;;;;20.90;13.97;;;;;;;;;;5066230;28;20431;-60
2022/01/11 03:12:29;;;;;;;23.53;12.50;;;;;;;;;;5054285;28;20418;-60
2022/01/11 03:14:55;;;;;;;22.10;12.03;;;;;;;;;;5044222;28;20759;-61
2022/01/11 03:17:22;;;;;;;24.40;14.60;;;;;;;;;;5063422;28;20975;-61
2022/01/11 03:19:48;;;;;;;19.93;12.90;;;;;;;;;;5061365;28;20418;-61
2022/01/11 03:22:15;;;;;;;21.40;12.23;;;;;;;;;;5067752;28;20840;-61
2022/01/11 03:24:44;;;;;;;24.30;13.40;;;;;;;;;;5048501;28;20462;-61
2022/01/11 03:27:10;;;;;;;21.17;13.30;;;;;;;;;;5066517;28;20466;-61
2022/01/11 03:29:40;;;;;;;22.03;13.37;;;;;;;;;;5048179;28;20427;-61
2022/01/11 03:32:07;;;;;;;21.37;12.50;;;;;;;;;;5047588;28;20414;-60
2022/01/11 03:34:33;;;;;;;21.30;12.97;;;;;;;;;;5044692;28;20501;-61
2022/01/11 03:37:00;;;;;;;22.37;13.37;;;;;;;;;;5048868;28;20953;-61
2022/01/11 03:39:26;;;;;;;24.50;13.77;;;;;;;;;;5043271;28;20515;-61
2022/01/11 03:41:53;;;;;;;22.17;13.43;;;;;;;;;;5048568;28;20419;-60
2022/01/11 03:44:19;;;;;;;20.60;13.10;;;;;;;;;;5062745;28;20418;-61
2022/01/11 03:46:45;;;;;;;22.90;12.67;;;;;;;;;;5047812;28;20492;-60
2022/01/11 03:49:14;;;;;;;19.57;12.53;;;;;;;;;;5047751;28;20500;-59
2022/01/11 03:51:40;;;;;;;18.97;11.93;;;;;;;;;;5043061;28;20419;-60
2022/01/11 03:54:14;;;;;;;22.20;13.83;;;;;;;;;;5065728;28;20446;-60
2022/01/11 03:56:40;;;;;;;18.17;12.20;;;;;;;;;;5065351;28;20450;-60
2022/01/11 03:59:07;;;;;;;22.53;13.10;;;;;;;;;;5069895;28;20431;-59
2022/01/11 04:01:37;;;;;;;21.30;13.80;;;;;;;;;;5039602;28;20415;-60
2022/01/11 04:04:04;;;;;;;21.43;13.00;;;;;;;;;;5054766;28;20459;-60
2022/01/11 04:06:30;;;;;;;21.93;13.63;;;;;;;;;;5051601;28;20830;-59
2022/01/11 04:09:02;;;;;;;22.53;13.77;;;;;;;;;;5072523;28;20981;-59
2022/01/11 04:11:29;;;;;;;22.60;13.37;;;;;;;;;;5060031;28;20942;-59
2022/01/11 04:13:55;;;;;;;20.43;12.70;;;;;;;;;;5059794;28;21248;-59
2022/01/11 04:16:21;;;;;;;20.77;13.10;;;;;;;;;;5066359;28;20952;-59
2022/01/11 04:18:51;;;;;;;28.57;14.77;;;;;;;;;;5059223;28;20507;-59
2022/01/11 04:21:17;;;;;;;22.97;14.30;;;;;;;;;;5066858;28;20807;-60
2022/01/11 04:23:43;;;;;;;21.67;13.07;;;;;;;;;;5065801;28;20905;-59
2022/01/11 04:26:13;;;;;;;22.20;13.70;;;;;;;;;;5073062;28;20782;-60
2022/01/11 04:28:39;;;;;;;26.87;15.37;;;;;;;;;;5061643;28;20426;-59
2022/01/11 04:31:06;;;;;;;20.03;12.97;;;;;;;;;;5062042;28;20445;-60
2022/01/11 04:33:33;;;;;;;23.20;13.77;;;;;;;;;;5059772;28;20477;-60
2022/01/11 04:36:02;;;;;;;23.90;13.87;;;;;;;;;;5071603;28;20427;-59
2022/01/11 04:38:30;;;;;;;22.77;13.50;;;;;;;;;;5056933;28;20913;-59
2022/01/11 04:40:56;;;;;;;23.57;14.63;;;;;;;;;;5075288;28;20426;-59
2022/01/11 04:43:23;;;;;;;20.20;12.93;;;;;;;;;;5076825;28;21202;-60
2022/01/11 04:45:50;;;;;;;24.40;14.20;;;;;;;;;;5064075;28;20462;-60
2022/01/11 04:48:16;;;;;;;21.53;12.97;;;;;;;;;;5063103;28;20450;-59
2022/01/11 04:50:45;;;;;;;22.83;13.83;;;;;;;;;;5068389;28;20471;-59
2022/01/11 04:53:11;;;;;;;24.37;13.03;;;;;;;;;;5071216;28;20415;-59
2022/01/11 04:55:37;;;;;;;21.50;13.00;;;;;;;;;;5057459;28;20466;-59
2022/01/11 04:58:03;;;;;;;19.77;12.20;;;;;;;;;;5069657;28;20435;-61
2022/01/11 05:00:33;;;;;;;21.90;13.67;;;;;;;;;;5062173;28;20431;-60
2022/01/11 05:02:59;;;;;;;23.27;13.70;;;;;;;;;;5055347;28;21070;-59
2022/01/11 05:05:28;;;;;;;23.37;14.33;;;;;;;;;;5054829;28;21254;-60
2022/01/11 05:07:55;;;;;;;23.30;13.27;;;;;;;;;;5048420;28;20932;-60
2022/01/11 05:10:21;;;;;;;27.17;13.33;;;;;;;;;;5070907;28;20406;-61
2022/01/11 05:12:50;;;;;;;25.13;14.30;;;;;;;;;;5070121;28;20415;-61
2022/01/11 05:15:20;;;;;;;21.77;12.30;;;;;;;;;;5061690;28;20448;-61
2022/01/11 05:17:48;;;;;;;22.37;13.77;;;;;;;;;;5051779;28;20445;-60
2022/01/11 05:20:15;;;;;;;21.60;13.30;;;;;;;;;;5055166;28;20434;-61
2022/01/11 05:22:42;;;;;;;26.70;15.07;;;;;;;;;;5064223;28;20430;-61
2022/01/11 05:25:11;;;;;;;25.60;14.17;;;;;;;;;;5053032;28;20419;-61
2022/01/11 05:27:38;;;;;;;25.57;14.50;;;;;;;;;;5066151;28;20439;-61
2022/01/11 05:30:08;;;;;;;24.80;14.67;;;;;;;;;;5068672;28;20537;-60
2022/01/11 05:32:35;;;;;;;25.83;14.20;;;;;;;;;;5049997;28;20438;-62
2022/01/11 05:35:03;;;;;;;22.23;13.57;;;;;;;;;;5049576;28;20423;-60
2022/01/11 05:37:32;;;;;;;25.13;16.13;;;;;;;;;;5068869;28;20649;-60
2022/01/11 05:40:02;;;;;;;20.40;13.07;;;;;;;;;;5057968;28;20434;-60
2022/01/11 05:42:28;;;;;;;24.43;13.93;;;;;;;;;;5045369;28;20432;-62
2022/01/11 05:44:58;;;;;;;24.67;14.13;;;;;;;;;;5065292;28;20423;-60
2022/01/11 05:47:30;;;;;;;23.63;13.40;;;;;;;;;;5050357;28;20458;-60
2022/01/11 05:49:57;;;;;;;23.23;13.80;;;;;;;;;;5056349;28;21174;-60
2022/01/11 05:52:23;;;;;;;24.97;13.70;;;;;;;;;;5072796;28;20415;-60
2022/01/11 05:54:49;;;;;;;24.20;14.07;;;;;;;;;;5050601;28;20980;-60
2022/01/11 05:57:16;;;;;;;21.97;12.77;;;;;;;;;;5053931;28;20488;-60
2022/01/11 05:59:45;;;;;;;25.03;13.60;;;;;;;;;;5050656;28;20530;-60
2022/01/11 06:02:15;;;;;;;20.57;12.67;;;;;;;;;;5047879;28;20414;-60
2022/01/11 06:04:41;;;;;;;22.70;12.63;;;;;;;;;;5065055;28;20422;-61
2022/01/11 06:07:08;;;;;;;21.97;12.77;;;;;;;;;;5066894;28;20458;-61
2022/01/11 06:09:40;;;;;;;24.27;13.13;;;;;;;;;;5047785;28;20427;-60
2022/01/11 06:12:13;;;;;;;24.67;14.23;;;;;;;;;;5062451;28;20419;-62
2022/01/11 06:14:39;;;;;;;20.60;13.00;;;;;;;;;;5047429;28;20418;-61
2022/01/11 06:17:05;;;;;;;24.70;15.00;;;;;;;;;;5067480;28;20423;-61
2022/01/11 06:19:32;;;;;;;24.17;13.73;;;;;;;;;;5053706;28;20414;-60
2022/01/11 06:21:59;;;;;;;20.27;13.13;;;;;;;;;;5067547;28;20946;-60
2022/01/11 06:24:26;;;;;;;21.87;12.07;;;;;;;;;;5046875;28;20823;-61
2022/01/11 06:26:53;;;;;;;21.43;13.13;;;;;;;;;;5049442;28;20519;-61
2022/01/11 06:29:21;;;;;;;22.73;12.67;;;;;;;;;;5046405;28;20534;-61
2022/01/11 06:31:47;;;;;;;22.80;13.10;;;;;;;;;;5045420;28;20430;-61
2022/01/11 06:34:14;;;;;;;22.43;13.17;;;;;;;;;;5052053;28;20418;-60
2022/01/11 06:36:40;;;;;;;21.07;12.50;;;;;;;;;;5049617;28;20411;-60
2022/01/11 06:39:07;;;;;;;22.97;13.70;;;;;;;;;;5060938;28;20498;-60
2022/01/11 06:41:35;;;;;;;24.20;12.50;;;;;;;;;;5051199;28;20431;-60
2022/01/11 06:44:01;;;;;;;24.67;13.87;;;;;;;;;;5047064;28;20436;-60
2022/01/11 06:46:31;;;;;;;24.97;13.87;;;;;;;;;;5048670;28;21036;-61
2022/01/11 06:48:59;;;;;;;23.40;12.37;;;;;;;;;;5054336;28;20446;-60
2022/01/11 06:51:25;;;;;;;23.87;14.30;;;;;;;;;;5054624;28;20448;-62
2022/01/11 06:53:52;;;;;;;21.03;12.73;;;;;;;;;;5044973;28;20411;-62
2022/01/11 06:56:20;;;;;;;22.93;13.13;;;;;;;;;;5081133;28;20984;-62
2022/01/11 06:58:46;;;;;;;22.87;13.53;;;;;;;;;;5087567;28;20418;-61
2022/01/11 07:01:13;;;;;;;19.73;12.67;;;;;;;;;;5063768;28;20422;-62
2022/01/11 07:03:39;;;;;;;20.60;13.70;;;;;;;;;;5086281;28;20457;-61
2022/01/11 07:06:06;;;;;;;23.93;12.63;;;;;;;;;;5075251;28;20454;-61
2022/01/11 07:08:32;;;;;;;20.10;12.17;;;;;;;;;;5071491;28;20418;-62
2022/01/11 07:10:59;;;;;;;25.40;13.47;;;;;;;;;;5069235;28;20859;-62
2022/01/11 07:13:25;;;;;;;24.37;12.73;;;;;;;;;;5068720;28;20425;-61
2022/01/11 07:15:51;;;;;;;23.70;13.10;;;;;;;;;;5062438;28;20429;-61
2022/01/11 07:18:17;;;;;;;21.43;12.60;;;;;;;;;;5085690;28;20414;-61
2022/01/11 07:20:44;;;;;;;20.93;11.83;;;;;;;;;;5067294;28;20431;-61
2022/01/11 07:23:10;;;;;;;20.80;12.63;;;;;;;;;;5068381;28;20425;-61
2022/01/11 07:25:37;;;;;;;20.40;12.43;;;;;;;;;;5069119;28;20457;-61
2022/01/11 07:28:04;;;;;;;22.90;13.43;;;;;;;;;;5086538;28;20910;-61
2022/01/11 07:30:30;;;;;;;19.80;11.60;;;;;;;;;;5083423;28;20468;-61
2022/01/11 07:32:57;;;;;;;22.33;14.07;;;;;;;;;;5090746;28;20424;-61
2022/01/11 07:35:23;;;;;;;22.17;13.03;;;;;;;;;;5087278;28;20501;-61
2022/01/11 07:37:50;;;;;;;23.13;13.10;;;;;;;;;;5086157;28;20421;-61
2022/01/11 07:40:17;;;;;;;19.07;11.73;;;;;;;;;;5085129;28;20731;-61
2022/01/11 07:42:43;;;;;;;23.70;12.63;;;;;;;;;;5093112;28;20843;-61
2022/01/11 07:45:09;;;;;;;24.47;12.93;;;;;;;;;;5086646;28;20463;-61
2022/01/11 07:47:36;;;;;;;19.97;12.93;;;;;;;;;;5068024;28;20532;-61
2022/01/11 07:50:03;;;;;;;25.30;14.10;;;;;;;;;;5069227;28;20440;-61
2022/01/11 07:52:29;;;;;;;23.87;14.13;;;;;;;;;;5073445;28;20539;-61
2022/01/11 07:54:58;;;;;;;21.00;12.83;;;;;;;;;;5082414;28;20504;-61
2022/01/11 07:57:25;;;;;;;19.97;13.67;;;;;;;;;;5085315;28;20962;-61
2022/01/11 07:59:57;;;;;;;21.83;14.07;;;;;;;;;;5066640;28;20405;-61
2022/01/11 08:02:24;;;;;;;20.70;12.13;;;;;;;;;;5088550;28;20421;-61
2022/01/11 08:04:53;;;;;;;22.77;13.80;;;;;;;;;;5068259;28;20418;-61
2022/01/11 08:07:19;;;;;;;24.57;14.10;;;;;;;;;;5086772;28;20543;-61
2022/01/11 08:09:48;;;;;;;23.83;13.70;;;;;;;;;;5067372;28;20432;-61
2022/01/11 08:12:14;;;;;;;22.33;13.83;;;;;;;;;;5091468;28;20441;-62
2022/01/11 08:14:40;;;;;;;24.67;13.93;;;;;;;;;;5091154;28;20471;-62
2022/01/11 08:17:07;;;;;;;22.53;13.67;;;;;;;;;;5084799;28;20423;-62
2022/01/11 08:19:35;;;;;;;22.70;13.53;;;;;;;;;;5086077;28;20427;-62
2022/01/11 08:22:02;;;;;;;30.83;15.20;;;;;;;;;;5087191;28;20512;-61
2022/01/11 08:24:28;;;;;;;24.33;14.17;;;;;;;;;;5067630;28;20852;-62
2022/01/11 08:26:55;;;;;;;23.30;14.67;;;;;;;;;;5083194;28;20462;-61
2022/01/11 08:29:27;;;;;;;22.83;13.43;;;;;;;;;;5069946;28;20445;-62
2022/01/11 08:31:55;;;;;;;24.07;14.67;;;;;;;;;;5070709;28;20420;-62
2022/01/11 08:34:21;;;;;;;27.70;14.33;;;;;;;;;;5071447;28;20421;-61
2022/01/11 08:36:48;;;;;;;25.17;15.10;;;;;;;;;;5072361;28;20424;-61
2022/01/11 08:39:17;;;;;;;26.10;15.00;;;;;;;;;;5071630;28;20832;-62
2022/01/11 08:41:44;;;;;;;21.23;13.23;;;;;;;;;;5072463;28;20422;-61
2022/01/11 08:44:11;;;;;;;27.77;16.07;;;;;;;;;;5089853;28;20420;-61
2022/01/11 08:46:48;;;;;;;25.03;14.77;;;;;;;;;;5086463;28;20809;-61
2022/01/11 08:49:14;;;;;;;23.77;14.67;;;;;;;;;;5075254;28;20523;-61
2022/01/11 08:51:41;;;;;;;25.87;13.27;;;;;;;;;;5094594;28;20423;-61
2022/01/11 08:54:08;;;;;;;22.57;14.57;;;;;;;;;;5089407;28;20897;-61
2022/01/11 08:56:34;;;;;;;22.93;14.37;;;;;;;;;;5089546;28;20806;-61
2022/01/11 08:59:01;;;;;;;24.60;14.60;;;;;;;;;;5094578;28;20414;-61
2022/01/11 09:01:28;;;;;;;30.17;16.20;;;;;;;;;;5088834;28;21004;-61
2022/01/11 09:03:54;;;;;;;25.77;14.10;;;;;;;;;;5071722;28;20904;-61
2022/01/11 09:06:24;;;;;;;23.97;15.57;;;;;;;;;;5089246;28;20552;-60
2022/01/11 09:08:53;;;;;;;26.23;14.37;;;;;;;;;;5088566;28;20845;-60
2022/01/11 09:11:19;;;;;;;26.27;14.87;;;;;;;;;;5071172;28;20436;-60
2022/01/11 09:13:48;;;;;;;24.33;15.03;;;;;;;;;;5087821;28;20429;-61
2022/01/11 09:16:18;;;;;;;26.33;15.53;;;;;;;;;;5083955;28;20417;-60
2022/01/11 09:18:46;;;;;;;26.40;16.50;;;;;;;;;;5086727;28;20794;-61
2022/01/11 09:21:16;;;;;;;23.13;14.77;;;;;;;;;;5054703;28;20476;-61
2022/01/11 09:23:45;;;;;;;26.80;14.60;;;;;;;;;;5087833;28;20810;-62
2022/01/11 09:26:11;;;;;;;24.07;14.33;;;;;;;;;;5068486;28;20479;-61
2022/01/11 09:28:37;;;;;;;28.53;15.80;;;;;;;;;;5090352;28;20422;-61
2022/01/11 09:31:04;;;;;;;25.43;15.43;;;;;;;;;;5088033;28;20813;-61
2022/01/11 09:33:30;;;;;;;23.50;15.70;;;;;;;;;;5087438;28;20912;-61
2022/01/11 09:35:56;;;;;;;26.47;15.73;;;;;;;;;;5088275;28;20430;-60
2022/01/11 09:38:22;;;;;;;27.43;14.73;;;;;;;;;;5070252;28;20986;-60
2022/01/11 09:40:51;;;;;;;27.83;16.73;;;;;;;;;;5088541;28;20478;-60
2022/01/11 09:43:21;;;;;;;28.00;16.43;;;;;;;;;;5091624;28;20775;-60
2022/01/11 09:45:48;;;;;;;22.33;14.03;;;;;;;;;;5088639;28;20457;-60
2022/01/11 09:48:14;;;;;;;22.77;14.30;;;;;;;;;;5088461;28;20772;-60
2022/01/11 09:50:40;;;;;;;23.57;15.70;;;;;;;;;;5091145;28;20422;-59
2022/01/11 09:53:08;;;;;;;27.03;15.30;;;;;;;;;;5086502;28;20916;-59
2022/01/11 09:55:36;;;;;;;24.73;14.73;;;;;;;;;;5056441;28;20479;-59
2022/01/11 09:58:03;;;;;;;31.27;16.63;;;;;;;;;;5069567;28;20465;-59
2022/01/11 10:00:29;;;;;;;26.50;18.00;;;;;;;;;;5087747;28;20841;-59
2022/01/11 10:02:56;;;;;;;29.17;16.80;;;;;;;;;;5086800;28;20421;-59
2022/01/11 10:05:24;;;;;;;29.70;16.40;;;;;;;;;;5054328;28;20435;-59
2022/01/11 10:07:50;;;;;;;30.20;16.20;;;;;;;;;;5088475;28;20432;-59
2022/01/11 10:10:17;;;;;;;25.83;17.03;;;;;;;;;;5087475;28;20504;-58
2022/01/11 10:13:03;;;;;;;28.17;16.40;;;;;;;;;;5089191;28;20422;-58
2022/01/11 10:15:31;;;;;;;25.30;16.07;;;;;;;;;;5086589;28;20485;-59
2022/01/11 10:17:57;;;;;;;27.30;16.97;;;;;;;;;;5071096;28;20426;-58
2022/01/11 10:20:25;;;;;;;27.57;16.37;;;;;;;;;;5088563;28;20443;-58
2022/01/11 10:22:53;;;;;;;28.40;16.77;;;;;;;;;;5083205;28;20533;-58
2022/01/11 10:25:20;;;;;;;27.87;18.50;;;;;;;;;;5088643;28;20502;-58
2022/01/11 10:27:55;;;;;;;29.27;17.17;;;;;;;;;;5069783;28;20570;-58
2022/01/11 10:30:23;;;;;;;27.37;17.27;;;;;;;;;;5071479;28;20953;-58
2022/01/11 10:32:50;;;;;;;26.67;16.33;;;;;;;;;;5094830;28;20517;-58
2022/01/11 10:35:23;;;;;;;25.97;17.13;;;;;;;;;;5080940;28;20414;-58
2022/01/11 10:37:56;;;;;;;26.23;16.60;;;;;;;;;;5087729;28;20467;-58
2022/01/11 10:40:27;;;;;;;28.53;16.10;;;;;;;;;;5101967;28;20485;-58
2022/01/11 10:42:57;;;;;;;26.93;16.03;;;;;;;;;;5095257;28;21561;-57
2022/01/11 10:45:23;;;;;;;29.30;17.13;;;;;;;;;;5087402;28;20773;-58
2022/01/11 10:47:59;;;;;;;24.67;14.70;;;;;;;;;;5086900;28;20422;-58
2022/01/11 10:50:34;;;;;;;25.93;16.90;;;;;;;;;;5095833;28;20160;-57
2022/01/11 10:53:01;;;;;;;25.43;14.73;;;;;;;;;;5088928;28;20466;-58
2022/01/11 10:55:28;;;;;;;24.23;15.03;;;;;;;;;;5087437;28;20523;-58
2022/01/11 10:57:59;;;;;;;24.33;15.57;;;;;;;;;;5087767;28;20441;-58
2022/01/11 11:00:28;;;;;;;24.23;14.70;;;;;;;;;;5069646;28;20429;-58
2022/01/11 11:03:10;;;;;;;25.23;15.27;;;;;;;;;;5069854;28;20460;-58
2022/01/11 11:05:38;;;;;;;30.60;16.80;;;;;;;;;;5088177;28;20433;-58
2022/01/11 11:08:15;;;;;;;24.50;16.50;;;;;;;;;;5094139;28;20409;-58
2022/01/11 11:10:46;;;;;;;25.37;16.03;;;;;;;;;;5085383;28;21051;-58
2022/01/11 11:13:20;;;;;;;22.93;14.63;;;;;;;;;;5086141;28;20413;-58
2022/01/11 11:15:47;;;;;;;28.13;17.03;;;;;;;;;;5092094;28;20483;-58
2022/01/11 11:18:25;;;;;;;23.67;15.17;;;;;;;;;;5091699;28;20430;-58
2022/01/11 11:20:52;;;;;;;24.07;14.90;;;;;;;;;;5089103;28;20919;-57
2022/01/11 11:23:19;;;;;;;28.67;16.23;;;;;;;;;;5086371;28;21180;-58
2022/01/11 11:25:45;;;;;;;22.20;14.50;;;;;;;;;;5075369;28;20449;-58
2022/01/11 11:28:12;;;;;;;28.47;15.50;;;;;;;;;;5068049;28;20416;-58
2022/01/11 11:30:39;;;;;;;22.00;14.30;;;;;;;;;;5074393;28;20422;-58
2022/01/11 11:33:06;;;;;;;25.70;16.30;;;;;;;;;;5067651;28;20425;-58
2022/01/11 11:35:33;;;;;;;28.60;16.00;;;;;;;;;;5086090;28;20426;-58
2022/01/11 11:38:01;;;;;;;25.30;15.43;;;;;;;;;;5069250;28;20474;-58
2022/01/11 11:40:28;;;;;;;22.30;14.77;;;;;;;;;;5082277;28;20945;-58
2022/01/11 11:42:56;;;;;;;26.00;16.03;;;;;;;;;;5086403;28;20452;-58
2022/01/11 11:45:24;;;;;;;24.43;15.77;;;;;;;;;;5067415;28;20418;-57
2022/01/11 11:47:51;;;;;;;21.13;14.23;;;;;;;;;;5082134;28;20418;-58
2022/01/11 11:50:22;;;;;;;22.93;14.77;;;;;;;;;;5079937;28;20944;-58
2022/01/11 11:52:50;;;;;;;21.40;13.90;;;;;;;;;;5081060;28;20992;-58
2022/01/11 11:55:23;;;;;;;23.40;14.60;;;;;;;;;;5091181;28;20216;-58
2022/01/11 11:57:54;;;;;;;23.40;14.40;;;;;;;;;;5086434;28;20434;-58
2022/01/11 12:00:20;;;;;;;22.17;14.17;;;;;;;;;;5051323;28;20436;-58
2022/01/11 12:02:50;;;;;;;21.33;13.83;;;;;;;;;;5067476;28;20419;-60
2022/01/11 12:05:35;;;;;;;23.00;14.53;;;;;;;;;;5066714;28;20422;-58
2022/01/11 12:08:21;;;;;;;24.40;14.27;;;;;;;;;;5081767;28;20946;-58
2022/01/11 12:10:49;;;;;;;19.73;12.37;;;;;;;;;;5077434;28;20414;-58
2022/01/11 12:13:34;;;;;;;19.63;11.97;;;;;;;;;;5067031;28;20410;-58
2022/01/11 12:16:00;;;;;;;23.57;14.43;;;;;;;;;;5063190;28;20459;-58
2022/01/11 12:18:41;;;;;;;20.93;13.90;;;;;;;;;;5085094;28;20414;-58
2022/01/11 12:21:08;;;;;;;20.63;13.80;;;;;;;;;;5056509;28;20603;-58
2022/01/11 12:23:34;;;;;;;19.03;13.07;;;;;;;;;;5085912;28;20416;-58
2022/01/11 12:26:13;;;;;;;20.37;12.80;;;;;;;;;;5082772;28;20869;-58
2022/01/11 12:28:40;;;;;;;20.33;13.27;;;;;;;;;;5087374;28;20409;-58
2022/01/11 12:31:26;;;;;;;19.73;12.63;;;;;;;;;;5086902;28;20501;-58
2022/01/11 12:33:52;;;;;;;20.40;13.70;;;;;;;;;;5064735;28;20452;-58
2022/01/11 12:36:19;;;;;;;20.60;12.73;;;;;;;;;;5068149;28;20916;-58
2022/01/11 12:39:03;;;;;;;19.27;13.27;;;;;;;;;;5088563;28;20965;-58
2022/01/11 12:41:31;;;;;;;21.27;13.77;;;;;;;;;;5065579;28;20429;-58
2022/01/11 12:44:26;;;;;;;17.43;11.90;;;;;;;;;;5066922;28;20421;-58
2022/01/11 12:46:57;;;;;;;16.43;12.20;;;;;;;;;;5080395;28;20207;-58
2022/01/11 12:49:24;;;;;;;21.07;13.57;;;;;;;;;;5053548;28;20423;-58
2022/01/11 12:51:53;;;;;;;21.40;14.50;;;;;;;;;;5067630;28;20460;-58
2022/01/11 12:54:19;;;;;;;19.50;11.03;;;;;;;;;;5081073;28;20444;-58
2022/01/11 12:56:47;;;;;;;21.57;11.67;;;;;;;;;;5080682;28;20541;-58
2022/01/11 12:59:14;;;;;;;16.67;12.17;;;;;;;;;;5056802;28;20426;-58
2022/01/11 13:01:40;;;;;;;14.27;12.17;;;;;;;;;;5067088;28;20980;-58
2022/01/11 13:04:07;;;;;;;17.50;12.10;;;;;;;;;;5052880;28;20180;-58
2022/01/11 13:06:35;;;;;;;16.73;11.60;;;;;;;;;;5057435;28;20480;-58
2022/01/11 13:09:03;;;;;;;17.53;12.13;;;;;;;;;;5044298;28;20902;-58
2022/01/11 13:11:29;;;;;;;20.33;13.07;;;;;;;;;;5066395;28;20414;-58
2022/01/11 13:14:16;;;;;;;20.53;13.50;;;;;;;;;;5068175;28;20430;-58
2022/01/11 13:16:42;;;;;;;16.47;12.60;;;;;;;;;;5074609;28;20650;-58
2022/01/11 13:19:11;;;;;;;20.67;12.73;;;;;;;;;;5076222;28;20968;-58
2022/01/11 13:21:38;;;;;;;15.77;11.97;;;;;;;;;;5069486;28;20445;-58
2022/01/11 13:24:22;;;;;;;17.90;11.80;;;;;;;;;;5056423;28;20426;-58
2022/01/11 13:26:48;;;;;;;20.40;13.07;;;;;;;;;;5059135;28;20968;-58
2022/01/11 13:29:17;;;;;;;15.67;12.37;;;;;;;;;;5068927;28;20479;-58
2022/01/11 13:31:47;;;;;;;18.97;13.43;;;;;;;;;;5065515;28;20978;-58
2022/01/11 13:34:14;;;;;;;15.13;10.97;;;;;;;;;;5045196;28;20432;-58
2022/01/11 13:36:44;;;;;;;18.83;12.80;;;;;;;;;;5070526;28;20181;-58
2022/01/11 13:39:10;;;;;;;18.73;13.33;;;;;;;;;;5068746;28;20279;-58
2022/01/11 13:41:45;;;;;;;21.47;13.13;;;;;;;;;;5073938;28;20426;-58
2022/01/11 13:44:13;;;;;;;21.60;13.07;;;;;;;;;;5070092;28;20282;-58
2022/01/11 13:46:47;;;;;;;24.53;13.37;;;;;;;;;;5081068;28;20463;-58
2022/01/11 13:49:33;;;;;;;19.03;12.47;;;;;;;;;;5053823;28;20648;-57
2022/01/11 13:52:02;;;;;;;18.47;12.67;;;;;;;;;;5049038;28;20454;-58
2022/01/11 13:54:33;;;;;;;16.37;12.30;;;;;;;;;;5070845;28;20996;-58
2022/01/11 13:57:01;;;;;;;17.40;13.30;;;;;;;;;;5051522;28;20461;-56
2022/01/11 13:59:32;;;;;;;22.93;14.27;;;;;;;;;;5067705;28;20210;-56
2022/01/11 14:02:20;;;;;;;18.77;13.57;;;;;;;;;;5066927;28;20292;-56
2022/01/11 14:04:53;;;;;;;25.07;16.23;;;;;;;;;;5049073;28;20177;-56
2022/01/11 14:07:23;;;;;;;20.07;14.80;;;;;;;;;;5066105;28;20242;-56
2022/01/11 14:09:53;;;;;;;25.90;16.23;;;;;;;;;;5068429;28;20187;-56
2022/01/11 14:12:25;;;;;;;24.00;15.47;;;;;;;;;;5067706;28;20704;-56
2022/01/11 14:15:02;;;;;;;25.07;16.83;;;;;;;;;;5068566;28;20225;-56
2022/01/11 14:17:29;;;;;;;24.83;17.23;;;;;;;;;;5039914;28;20189;-56
2022/01/11 14:20:05;;;;;;;26.50;18.43;;;;;;;;;;5063455;28;20188;-56
2022/01/11 14:22:47;;;;;;;27.97;16.83;;;;;;;;;;5075053;28;20176;-56
2022/01/11 14:25:32;;;;;;;23.90;16.07;;;;;;;;;;5054031;28;20238;-56
2022/01/11 14:27:58;;;;;;;27.07;17.03;;;;;;;;;;5076064;28;20188;-56